Time;durP1;ratioP1;P1;durP2;ratioP2;P2;SDS_P1;SDS_P2;PMS_P1;PMS_P2;Temp;Humidity;BMP_temperature;BMP_pressure;BME280_temperature;BME280_humidity;BME280_pressure;Samples;Min_cycle;Max_cycle;Signal;HPM_P1;HPM_P2
2021/08/25 00:01:56;;;;;;;1.50;1.40;;;;;;;10.93;100.00;101488.22;5011193;28;20234;-74
2021/08/25 00:04:22;;;;;;;2.90;1.80;;;;;;;10.88;100.00;101495.66;5010799;28;20570;-73
2021/08/25 00:06:47;;;;;;;1.83;1.40;;;;;;;10.85;100.00;101482.56;5010924;28;20180;-74
2021/08/25 00:09:12;;;;;;;1.67;1.43;;;;;;;10.83;100.00;101482.03;5010860;28;20216;-74
2021/08/25 00:11:38;;;;;;;1.43;1.23;;;;;;;10.75;100.00;101486.22;5010786;28;20478;-72
2021/08/25 00:14:04;;;;;;;1.87;1.57;;;;;;;10.86;100.00;101484.22;5010632;28;20688;-73
2021/08/25 00:16:29;;;;;;;2.53;1.57;;;;;;;10.90;100.00;101475.13;5010830;28;20260;-73
2021/08/25 00:18:55;;;;;;;1.40;1.30;;;;;;;10.89;100.00;101472.69;5010736;28;20188;-73
2021/08/25 00:21:20;;;;;;;2.43;1.50;;;;;;;10.85;100.00;101466.16;5010862;28;20177;-72
2021/08/25 00:23:45;;;;;;;2.30;2.03;;;;;;;10.82;100.00;101466.72;5014432;28;20200;-74
2021/08/25 00:26:11;;;;;;;1.60;1.50;;;;;;;10.87;100.00;101469.44;5014636;28;20207;-74
2021/08/25 00:28:36;;;;;;;2.53;1.83;;;;;;;10.87;100.00;101466.69;5014570;28;20267;-73
2021/08/25 00:31:02;;;;;;;1.40;1.30;;;;;;;10.79;100.00;101470.03;5014485;28;20541;-75
2021/08/25 00:33:27;;;;;;;1.90;1.70;;;;;;;10.79;100.00;101470.03;5014550;28;20173;-72
2021/08/25 00:35:52;;;;;;;2.60;1.50;;;;;;;10.79;100.00;101467.31;5014340;28;20188;-73
2021/08/25 00:38:18;;;;;;;1.43;1.33;;;;;;;10.84;100.00;101470.81;5014287;28;20238;-74
2021/08/25 00:40:43;;;;;;;1.83;1.47;;;;;;;10.80;100.00;101467.03;5014476;28;20165;-73
2021/08/25 00:43:11;;;;;;;2.40;1.77;;;;;;;10.71;100.00;101464.09;5013999;28;20246;-73
2021/08/25 00:45:39;;;;;;;2.17;1.40;;;;;;;10.61;100.00;101455.19;5014037;28;20179;-73
2021/08/25 00:48:05;;;;;;;1.97;1.50;;;;;;;10.57;100.00;101451.41;5014308;28;20264;-73
2021/08/25 00:50:31;;;;;;;1.97;1.73;;;;;;;10.53;100.00;101448.41;5014020;28;20172;-73
2021/08/25 00:52:56;;;;;;;2.53;1.57;;;;;;;10.51;100.00;101447.88;5014152;28;20231;-72
2021/08/25 00:55:22;;;;;;;2.13;1.67;;;;;;;10.57;100.00;101446.75;5013947;28;20193;-73
2021/08/25 00:57:47;;;;;;;1.73;1.43;;;;;;;10.61;100.00;101453.25;5014040;28;20203;-73
2021/08/25 01:00:14;;;;;;;1.43;1.23;;;;;;;10.57;100.00;101440.47;5013964;28;20177;-73
2021/08/25 01:03:19;;;;;;;1.67;1.20;;;;;;;10.53;100.00;101442.94;5014340;28;20263;-73
2021/08/25 01:05:47;;;;;;;1.90;1.47;;;;;;;10.45;100.00;101442.75;5012604;28;20196;-73
2021/08/25 01:08:16;;;;;;;2.30;1.63;;;;;;;10.39;100.00;101444.69;5013835;28;20187;-72
2021/08/25 01:10:42;;;;;;;2.10;1.70;;;;;;;10.43;100.00;101435.66;5013804;28;20263;-73
2021/08/25 01:13:10;;;;;;;2.50;1.93;;;;;;;10.43;100.00;101443.84;5013721;28;20280;-72
2021/08/25 01:15:40;;;;;;;1.17;1.07;;;;;;;10.43;100.00;101435.66;5013626;28;20189;-74
2021/08/25 01:18:10;;;;;;;1.93;1.83;;;;;;;10.39;100.00;101434.56;5013434;28;20200;-73
2021/08/25 01:20:37;;;;;;;1.33;1.20;;;;;;;10.33;100.00;101441.19;5013635;28;20183;-73
2021/08/25 01:23:03;;;;;;;3.37;1.67;;;;;;;10.28;100.00;101432.25;5013428;28;20207;-73
2021/08/25 01:25:30;;;;;;;2.07;1.47;;;;;;;10.18;100.00;101427.63;5013449;28;20636;-75
2021/08/25 01:27:59;;;;;;;2.03;1.47;;;;;;;10.18;100.00;101424.91;5013504;28;20304;-73
2021/08/25 01:30:26;;;;;;;2.37;1.53;;;;;;;10.20;100.00;101413.69;5013536;28;20580;-74
2021/08/25 01:32:52;;;;;;;2.77;1.90;;;;;;;10.19;100.00;101421.06;5014782;28;20177;-72
2021/08/25 01:35:17;;;;;;;2.70;2.20;;;;;;;10.20;100.00;101430.06;5013699;28;20640;-73
2021/08/25 01:37:44;;;;;;;2.13;1.87;;;;;;;10.18;100.00;101433.09;5013453;28;20183;-73
2021/08/25 01:40:09;;;;;;;2.30;1.73;;;;;;;10.16;100.00;101413.44;5013258;28;20204;-75
2021/08/25 01:42:35;;;;;;;2.17;1.77;;;;;;;10.17;100.00;101417.00;5012669;28;20212;-72
2021/08/25 01:45:00;;;;;;;1.87;1.63;;;;;;;10.25;100.00;101421.84;5012903;28;20636;-73
2021/08/25 01:47:26;;;;;;;2.43;1.70;;;;;;;10.29;100.00;101425.66;5013046;28;20173;-74
2021/08/25 01:49:52;;;;;;;2.10;1.90;;;;;;;10.27;100.00;101420.50;5013059;28;20197;-73
2021/08/25 01:52:18;;;;;;;2.90;1.60;;;;;;;10.19;100.00;101420.25;5013156;28;20574;-73
2021/08/25 01:54:45;;;;;;;2.90;1.70;;;;;;;10.06;100.00;101414.31;5012692;28;20223;-73
2021/08/25 01:57:11;;;;;;;2.07;1.80;;;;;;;9.93;100.00;101414.97;5012861;28;20169;-73
2021/08/25 01:59:36;;;;;;;2.13;1.87;;;;;;;9.89;100.00;101419.34;5012797;28;20230;-72
2021/08/25 02:02:02;;;;;;;2.63;2.30;;;;;;;9.97;100.00;101415.19;5012795;28;20239;-73
2021/08/25 02:04:27;;;;;;;2.87;2.13;;;;;;;10.06;100.00;101418.97;5012535;28;20622;-74
2021/08/25 02:06:54;;;;;;;9.30;2.13;;;;;;;10.09;100.00;101421.94;5012636;28;20200;-73
2021/08/25 02:09:20;;;;;;;2.93;2.27;;;;;;;9.99;100.00;101416.56;5012486;28;20191;-73
2021/08/25 02:11:45;;;;;;;1.87;1.57;;;;;;;9.92;100.00;101404.31;5012521;28;20177;-73
2021/08/25 02:14:10;;;;;;;3.10;1.70;;;;;;;9.92;100.00;101420.69;5012323;28;20549;-73
2021/08/25 02:16:36;;;;;;;2.23;2.03;;;;;;;9.94;100.00;101422.03;5012479;28;20540;-73
2021/08/25 02:19:01;;;;;;;3.10;2.20;;;;;;;10.01;100.00;101411.63;5012361;28;20187;-73
2021/08/25 02:21:27;;;;;;;2.23;1.83;;;;;;;10.13;100.00;101409.38;5012410;28;20177;-73
2021/08/25 02:23:52;;;;;;;2.43;2.13;;;;;;;10.18;100.00;101424.06;5011067;28;20200;-74
2021/08/25 02:26:17;;;;;;;2.37;2.17;;;;;;;10.08;100.00;101417.59;5012642;28;20188;-75
2021/08/25 02:28:47;;;;;;;3.03;2.10;;;;;;;9.99;100.00;101434.88;5012334;28;20172;-73
2021/08/25 02:31:13;;;;;;;3.43;1.90;;;;;;;9.91;100.00;101441.72;5012197;28;20169;-74
2021/08/25 02:33:39;;;;;;;2.20;2.00;;;;;;;9.97;100.00;101503.38;5012113;28;20199;-74
2021/08/25 02:36:06;;;;;;;3.23;2.07;;;;;;;10.00;100.00;101530.13;5012099;28;20644;-73
2021/08/25 02:38:32;;;;;;;2.70;2.10;;;;;;;10.04;100.00;101514.00;5012032;28;20177;-73
2021/08/25 02:40:58;;;;;;;2.47;1.93;;;;;;;10.03;100.00;101502.25;5012062;28;20187;-74
2021/08/25 02:43:23;;;;;;;2.17;1.70;;;;;;;10.04;100.00;101498.44;5012208;28;20651;-73
2021/08/25 02:45:48;;;;;;;3.33;2.73;;;;;;;10.06;100.00;101506.34;5011382;28;20183;-72
2021/08/25 02:48:14;;;;;;;2.73;2.07;;;;;;;10.08;100.00;101433.97;5011977;28;20169;-73
2021/08/25 02:50:39;;;;;;;2.20;1.80;;;;;;;10.03;100.00;101487.81;5011906;28;20222;-73
2021/08/25 02:53:05;;;;;;;9.60;1.90;;;;;;;9.97;100.00;101483.44;5011781;28;20188;-73
2021/08/25 02:55:30;;;;;;;4.10;2.33;;;;;;;10.02;100.00;101483.44;5012021;28;20183;-74
2021/08/25 02:57:57;;;;;;;3.57;2.27;;;;;;;10.10;100.00;101491.84;5011624;28;20547;-75
2021/08/25 03:00:23;;;;;;;2.37;2.03;;;;;;;10.19;100.00;101489.34;5011750;28;20643;-74
2021/08/25 03:02:48;;;;;;;2.47;2.10;;;;;;;10.21;100.00;101480.84;5011593;28;20419;-73
2021/08/25 03:05:13;;;;;;;2.57;2.37;;;;;;;10.35;100.00;101484.59;5011505;28;20261;-73
2021/08/25 03:07:39;;;;;;;2.20;2.00;;;;;;;10.34;100.00;101510.31;5011596;28;20188;-74
2021/08/25 03:10:05;;;;;;;2.40;2.00;;;;;;;10.25;100.00;101509.25;5011572;28;20212;-73
2021/08/25 03:12:30;;;;;;;2.10;1.90;;;;;;;10.26;100.00;101519.06;5011501;28;20176;-73
2021/08/25 03:14:55;;;;;;;3.03;2.23;;;;;;;10.47;100.00;101498.72;5010685;28;20181;-74
2021/08/25 03:17:21;;;;;;;3.07;1.93;;;;;;;10.46;100.00;101490.81;5008492;28;20548;-74
2021/08/25 03:19:46;;;;;;;2.17;1.87;;;;;;;10.27;100.00;101485.19;5011352;28;20185;-73
2021/08/25 03:22:11;;;;;;;2.77;1.80;;;;;;;10.15;100.00;101488.28;5011217;28;20272;-74
2021/08/25 03:24:37;;;;;;;2.47;1.77;;;;;;;10.04;100.00;101475.78;5011147;28;20215;-73
2021/08/25 03:27:02;;;;;;;2.57;2.37;;;;;;;10.05;100.00;101472.75;5011380;28;20263;-73
2021/08/25 03:29:28;;;;;;;2.30;1.97;;;;;;;10.18;100.00;101484.16;5011333;28;20259;-74
2021/08/25 03:31:53;;;;;;;2.50;2.30;;;;;;;10.21;100.00;101467.19;5011265;28;20663;-73
2021/08/25 03:34:18;;;;;;;3.30;2.50;;;;;;;10.21;100.00;101480.84;5011047;28;20620;-74
2021/08/25 03:36:44;;;;;;;2.10;1.80;;;;;;;10.28;100.00;101473.19;5011077;28;20176;-74
2021/08/25 03:39:10;;;;;;;2.53;2.10;;;;;;;10.12;100.00;101462.31;5011125;28;20203;-73
2021/08/25 03:41:35;;;;;;;4.20;2.20;;;;;;;10.04;100.00;101460.22;5011071;28;20683;-74
2021/08/25 03:44:01;;;;;;;2.07;1.90;;;;;;;10.12;100.00;101454.13;5010931;28;20240;-74
2021/08/25 03:46:27;;;;;;;2.40;1.83;;;;;;;10.29;100.00;101469.38;5010902;28;20593;-73
2021/08/25 03:48:53;;;;;;;2.97;2.30;;;;;;;10.39;100.00;101461.91;5011426;28;20211;-74
2021/08/25 03:51:19;;;;;;;2.33;1.97;;;;;;;10.46;100.00;101458.03;5009669;28;20180;-73
2021/08/25 03:53:44;;;;;;;2.97;1.80;;;;;;;10.52;100.00;101454.16;5005273;28;20250;-75
2021/08/25 03:56:09;;;;;;;2.23;1.57;;;;;;;10.49;100.00;101452.81;4999017;28;20275;-73
2021/08/25 03:58:35;;;;;;;2.10;1.80;;;;;;;10.57;100.00;101448.66;5014868;28;20255;-72
2021/08/25 04:01:00;;;;;;;2.83;1.80;;;;;;;10.45;100.00;101450.94;5013695;28;20180;-74
2021/08/25 04:03:25;;;;;;;2.03;1.70;;;;;;;10.33;100.00;101446.66;5014938;28;20265;-74
2021/08/25 04:05:51;;;;;;;1.70;1.50;;;;;;;10.49;100.00;101450.09;5014895;28;20172;-74
2021/08/25 04:08:16;;;;;;;4.10;1.50;;;;;;;10.58;100.00;101450.28;5014959;28;20172;-75
2021/08/25 04:10:41;;;;;;;1.70;1.50;;;;;;;10.58;100.00;101447.56;5014830;28;20267;-74
2021/08/25 04:13:07;;;;;;;2.40;1.70;;;;;;;10.45;100.00;101449.03;5014813;28;20250;-74
2021/08/25 04:15:32;;;;;;;2.20;1.80;;;;;;;10.42;100.00;101453.16;5013396;28;20279;-73
2021/08/25 04:17:58;;;;;;;3.20;1.73;;;;;;;10.40;100.00;101449.88;5014688;28;20192;-73
2021/08/25 04:20:23;;;;;;;2.07;1.53;;;;;;;10.28;100.00;101445.88;5014717;28;20644;-75
2021/08/25 04:22:48;;;;;;;3.13;2.17;;;;;;;10.21;100.00;101453.53;5014520;28;20226;-75
2021/08/25 04:25:14;;;;;;;3.57;2.33;;;;;;;9.83;100.00;101455.94;5013230;28;20180;-74
2021/08/25 04:27:39;;;;;;;2.40;1.97;;;;;;;9.78;100.00;101456.00;5014513;28;20230;-72
2021/08/25 04:30:05;;;;;;;4.73;1.97;;;;;;;9.91;100.00;101468.22;5014567;28;20207;-74
2021/08/25 04:32:30;;;;;;;3.83;2.30;;;;;;;9.83;100.00;101481.31;5014429;28;20204;-74
2021/08/25 04:34:56;;;;;;;2.67;2.23;;;;;;;9.78;100.00;101470.44;5014407;28;20181;-73
2021/08/25 04:37:21;;;;;;;2.83;1.97;;;;;;;9.50;100.00;101471.94;5014391;28;20189;-73
2021/08/25 04:39:47;;;;;;;2.33;2.17;;;;;;;9.30;100.00;101466.56;5014384;28;20596;-73
2021/08/25 04:42:12;;;;;;;2.43;2.23;;;;;;;9.49;100.00;101473.03;5014344;28;20187;-73
2021/08/25 04:44:37;;;;;;;1.73;1.53;;;;;;;9.70;100.00;101486.59;5014087;28;20211;-73
2021/08/25 04:47:03;;;;;;;3.33;1.93;;;;;;;9.87;100.00;101483.53;5014277;28;20263;-74
2021/08/25 04:49:28;;;;;;;1.80;1.50;;;;;;;9.59;100.00;101474.09;5014165;28;20577;-73
2021/08/25 04:51:53;;;;;;;1.93;1.70;;;;;;;9.48;100.00;101462.41;5014164;28;20181;-73
2021/08/25 04:54:19;;;;;;;3.50;2.43;;;;;;;9.18;100.00;101452.41;5013937;28;20640;-74
2021/08/25 04:56:44;;;;;;;3.30;2.57;;;;;;;9.06;100.00;101454.63;5012755;28;20664;-73
2021/08/25 04:59:09;;;;;;;3.70;2.20;;;;;;;9.07;100.00;101467.16;5014120;28;20628;-75
2021/08/25 05:01:35;;;;;;;2.30;2.10;;;;;;;9.24;100.00;101473.13;5013891;28;20180;-73
2021/08/25 05:04:00;;;;;;;1.70;1.60;;;;;;;9.51;100.00;101483.66;5013701;28;20652;-73
2021/08/25 05:06:25;;;;;;;1.90;1.70;;;;;;;9.75;100.00;101492.84;5013888;28;20466;-75
2021/08/25 05:08:51;;;;;;;2.20;2.00;;;;;;;9.98;100.00;101487.81;5013439;28;20187;-75
2021/08/25 05:11:16;;;;;;;2.50;1.80;;;;;;;10.19;100.00;101472.13;5013854;28;20172;-73
2021/08/25 05:13:41;;;;;;;2.30;1.97;;;;;;;10.21;100.00;101467.19;5012342;28;20211;-74
2021/08/25 05:16:13;;;;;;;3.47;1.90;;;;;;;10.04;100.00;101454.75;5013664;28;20204;-74
2021/08/25 05:18:40;;;;;;;2.60;1.50;;;;;;;10.03;100.00;101446.84;5013639;28;20192;-73
2021/08/25 05:21:06;;;;;;;3.97;2.00;;;;;;;10.01;100.00;101465.44;5013518;28;20628;-74
2021/08/25 05:23:31;;;;;;;1.77;1.67;;;;;;;10.02;100.00;101459.69;5013448;28;20235;-73
2021/08/25 05:25:56;;;;;;;2.37;2.07;;;;;;;10.11;100.00;101459.88;5013341;28;20583;-74
2021/08/25 05:28:22;;;;;;;3.40;2.57;;;;;;;10.08;100.00;101452.25;5012079;28;20180;-74
2021/08/25 05:30:47;;;;;;;2.60;2.40;;;;;;;10.20;100.00;101471.84;5013371;28;20181;-74
2021/08/25 05:33:12;;;;;;;2.37;1.90;;;;;;;10.10;100.00;101469.16;5012015;28;20190;-74
2021/08/25 05:35:38;;;;;;;2.80;1.87;;;;;;;10.26;100.00;101464.44;5013033;28;20220;-75
2021/08/25 05:38:03;;;;;;;2.33;2.13;;;;;;;10.11;100.00;101459.88;5013304;28;20184;-75
2021/08/25 05:40:29;;;;;;;2.27;2.00;;;;;;;10.13;100.00;101472.19;5013242;28;20264;-74
2021/08/25 05:42:54;;;;;;;3.17;2.60;;;;;;;10.16;100.00;101473.53;5013149;28;20431;-77
2021/08/25 05:45:19;;;;;;;2.73;2.20;;;;;;;10.24;100.00;101480.31;5013024;28;20185;-76
2021/08/25 05:47:45;;;;;;;3.00;2.17;;;;;;;10.24;100.00;101486.59;5013159;28;20223;-77
2021/08/25 05:50:11;;;;;;;2.53;2.30;;;;;;;10.17;100.00;101493.44;5013147;28;20234;-77
2021/08/25 05:52:36;;;;;;;2.37;2.10;;;;;;;10.28;100.00;101476.75;5012938;28;20645;-74
2021/08/25 05:55:03;;;;;;;2.20;2.00;;;;;;;10.33;100.00;101464.97;5009388;28;20275;-74
2021/08/25 05:57:28;;;;;;;2.80;2.57;;;;;;;10.48;100.00;101492.16;5004779;28;20210;-73
2021/08/25 05:59:55;;;;;;;2.60;2.40;;;;;;;10.63;100.00;101486.56;5012782;28;20185;-76
2021/08/25 06:02:20;;;;;;;2.43;2.23;;;;;;;10.66;100.00;101491.47;5012777;28;20177;-77
2021/08/25 06:04:46;;;;;;;2.10;1.90;;;;;;;10.97;100.00;101492.00;5012508;28;20212;-76
2021/08/25 06:07:11;;;;;;;6.20;2.63;;;;;;;11.17;100.00;101473.78;5012787;28;20215;-77
2021/08/25 06:09:37;;;;;;;2.80;2.57;;;;;;;11.35;100.00;101461.25;5012724;28;20231;-75
2021/08/25 06:12:04;;;;;;;3.53;2.40;;;;;;;11.46;100.00;101460.03;5012671;28;20177;-77
2021/08/25 06:14:29;;;;;;;2.87;2.30;;;;;;;11.52;100.00;101465.16;5012546;28;20180;-76
2021/08/25 06:16:54;;;;;;;3.27;2.60;;;;;;;11.58;100.00;101444.84;5012485;28;20214;-76
2021/08/25 06:19:20;;;;;;;4.33;2.00;;;;;;;11.66;100.00;101440.63;5011841;28;20238;-76
2021/08/25 06:21:47;;;;;;;3.43;2.03;;;;;;;11.69;100.00;101444.69;5012510;28;20256;-76
2021/08/25 06:24:13;;;;;;;2.50;1.80;;;;;;;11.71;100.00;101429.59;5016224;28;20200;-76
2021/08/25 06:26:39;;;;;;;2.93;2.33;;;;;;;11.78;100.00;101429.25;5020293;28;20211;-76
2021/08/25 06:29:04;;;;;;;3.07;2.33;;;;;;;11.88;100.00;101431.88;5016229;28;20188;-76
2021/08/25 06:31:30;;;;;;;2.77;2.13;;;;;;;11.96;100.00;101428.44;5023503;28;20310;-76
2021/08/25 06:33:55;;;;;;;2.33;1.80;;;;;;;12.06;100.00;101427.50;5013735;28;20183;-76
2021/08/25 06:36:20;;;;;;;3.13;2.10;;;;;;;12.14;100.00;101433.09;5012397;28;20583;-76
2021/08/25 06:38:45;;;;;;;3.77;2.37;;;;;;;12.20;100.00;101433.84;5012157;28;20183;-75
2021/08/25 06:41:11;;;;;;;1.73;1.63;;;;;;;12.25;100.00;101432.94;5012252;28;20181;-74
2021/08/25 06:43:36;;;;;;;2.80;2.27;;;;;;;12.29;100.00;101433.97;4996141;28;20205;-74
2021/08/25 06:46:02;;;;;;;3.07;2.30;;;;;;;12.33;100.00;101441.31;4994786;28;20515;-77
2021/08/25 06:48:27;;;;;;;1.90;1.60;;;;;;;12.31;100.00;101431.78;5000708;28;20175;-77
2021/08/25 06:50:52;;;;;;;2.70;2.17;;;;;;;12.28;100.00;101435.91;5002261;28;20184;-75
2021/08/25 06:53:18;;;;;;;2.30;1.80;;;;;;;12.35;100.00;101427.31;5008556;28;20545;-76
2021/08/25 06:55:43;;;;;;;2.30;2.10;;;;;;;12.43;100.00;101432.09;5002620;28;20180;-76
2021/08/25 06:58:08;;;;;;;4.10;2.17;;;;;;;12.51;100.00;101426.75;5001974;28;20209;-76
2021/08/25 07:00:34;;;;;;;4.70;2.33;;;;;;;12.54;100.00;101433.56;5001467;28;20586;-75
2021/08/25 07:02:59;;;;;;;2.73;1.83;;;;;;;12.55;100.00;101424.22;5002393;28;20179;-76
2021/08/25 07:05:25;;;;;;;3.87;2.13;;;;;;;12.60;100.00;101420.59;5000361;28;20227;-77
2021/08/25 07:07:51;;;;;;;2.63;2.30;;;;;;;12.65;100.00;101436.94;5001838;28;20230;-77
2021/08/25 07:10:16;;;;;;;2.13;1.93;;;;;;;12.71;100.00;101431.06;5001718;28;20664;-79
2021/08/25 07:12:42;;;;;;;3.30;2.23;;;;;;;12.84;100.00;101434.94;5011579;28;20168;-78
2021/08/25 07:15:15;;;;;;;2.60;2.40;;;;;;;12.96;100.00;101435.28;5009287;28;20172;-74
2021/08/25 07:17:40;;;;;;;2.70;1.80;;;;;;;13.01;100.00;101426.94;4991832;28;20271;-75
2021/08/25 07:20:06;;;;;;;2.97;2.50;;;;;;;13.06;100.00;101423.31;4991760;28;20596;-76
2021/08/25 07:22:31;;;;;;;3.03;2.40;;;;;;;13.09;100.00;101426.25;4991711;28;20228;-76
2021/08/25 07:24:57;;;;;;;2.83;1.77;;;;;;;13.21;100.00;101419.47;4992214;28;20205;-74
2021/08/25 07:27:22;;;;;;;2.43;1.60;;;;;;;13.29;100.00;101421.50;4992018;28;20202;-75
2021/08/25 07:29:48;;;;;;;3.00;1.93;;;;;;;13.39;100.00;101415.81;4991778;28;20178;-76
2021/08/25 07:32:13;;;;;;;2.37;1.87;;;;;;;13.53;100.00;101422.09;4990450;28;20264;-76
2021/08/25 07:34:38;;;;;;;3.63;2.30;;;;;;;13.67;100.00;101425.63;4992945;28;20672;-76
2021/08/25 07:37:04;;;;;;;2.40;1.83;;;;;;;13.79;100.00;101430.59;5008536;28;20200;-76
2021/08/25 07:39:29;;;;;;;2.50;2.30;;;;;;;13.78;100.00;101428.16;5002079;28;20213;-74
2021/08/25 07:41:55;;;;;;;1.73;1.63;;;;;;;13.77;100.00;101421.84;4999216;28;20181;-75
2021/08/25 07:44:20;;;;;;;2.50;2.17;;;;;;;13.78;100.00;101420.72;5011127;28;20212;-76
2021/08/25 07:46:46;;;;;;;2.10;1.70;;;;;;;13.87;100.00;101421.59;5011164;28;20173;-73
2021/08/25 07:49:11;;;;;;;2.23;1.90;;;;;;;13.99;100.00;101418.31;5011089;28;20172;-72
2021/08/25 07:51:37;;;;;;;2.27;1.67;;;;;;;13.99;100.00;101415.56;5011608;28;20176;-72
2021/08/25 07:54:03;;;;;;;5.33;2.43;;;;;;;14.10;100.00;101407.91;5009268;28;20210;-75
2021/08/25 07:56:29;;;;;;;3.20;1.97;;;;;;;14.20;100.00;101411.25;5007116;28;20223;-74
2021/08/25 07:58:55;;;;;;;4.97;2.37;;;;;;;14.29;100.00;101398.34;5010804;28;20604;-75
2021/08/25 08:01:20;;;;;;;2.93;2.27;;;;;;;14.36;100.00;101402.59;5010673;28;20200;-73
2021/08/25 08:03:46;;;;;;;2.53;1.73;;;;;;;14.38;100.00;101405.84;5010716;28;20239;-75
2021/08/25 08:06:11;;;;;;;2.40;1.70;;;;;;;14.39;100.00;101393.72;5010799;28;20256;-75
2021/08/25 08:08:36;;;;;;;2.40;2.03;;;;;;;14.39;100.00;101393.72;5010874;28;20172;-73
2021/08/25 08:11:02;;;;;;;2.53;2.07;;;;;;;14.46;100.00;101383.13;5009398;28;20177;-73
2021/08/25 08:13:27;;;;;;;2.40;1.73;;;;;;;14.70;100.00;101383.59;5009502;28;20200;-74
2021/08/25 08:15:53;;;;;;;1.60;1.37;;;;;;;14.87;100.00;101382.84;5010613;28;20188;-73
2021/08/25 08:18:29;;;;;;;2.03;1.70;;;;;;;14.96;99.56;101374.66;5010612;28;20188;-74
2021/08/25 08:20:54;;;;;;;1.73;1.30;;;;;;;15.05;100.00;101372.75;5010678;28;20168;-74
2021/08/25 08:23:19;;;;;;;2.10;1.67;;;;;;;15.23;99.10;101415.72;5009185;28;20582;-74
2021/08/25 08:25:45;;;;;;;3.27;2.07;;;;;;;15.36;97.85;101632.31;5010468;28;20303;-74
2021/08/25 08:28:10;;;;;;;2.73;2.10;;;;;;;15.46;98.43;101422.72;5010576;28;20576;-73
2021/08/25 08:30:36;;;;;;;3.97;2.60;;;;;;;15.50;97.35;101405.59;5010484;28;20177;-74
2021/08/25 08:33:01;;;;;;;2.27;1.67;;;;;;;15.54;97.73;101399.09;5010543;28;20204;-74
2021/08/25 08:35:26;;;;;;;1.70;1.20;;;;;;;15.63;98.90;101399.16;5010577;28;20184;-74
2021/08/25 08:37:52;;;;;;;2.00;1.60;;;;;;;15.69;98.40;101400.59;5010511;28;20189;-74
2021/08/25 08:40:17;;;;;;;2.60;1.57;;;;;;;15.80;99.61;101396.41;5007575;28;20188;-73
2021/08/25 08:42:43;;;;;;;2.90;1.90;;;;;;;15.83;96.62;101393.00;5010968;28;20258;-73
2021/08/25 08:45:10;;;;;;;2.13;1.40;;;;;;;15.89;97.81;101401.91;5013698;28;20206;-74
2021/08/25 08:47:36;;;;;;;2.37;1.63;;;;;;;15.98;95.95;101398.03;5014053;28;20180;-73
2021/08/25 08:50:03;;;;;;;5.83;1.97;;;;;;;16.21;96.69;101400.63;5013948;28;20172;-73
2021/08/25 08:52:28;;;;;;;5.37;2.00;;;;;;;16.37;94.21;101393.47;5014037;28;20339;-74
2021/08/25 08:54:57;;;;;;;2.57;2.20;;;;;;;16.40;93.88;101384.53;5009388;28;20624;-73
2021/08/25 08:57:23;;;;;;;2.70;2.00;;;;;;;16.56;89.73;101380.09;5004414;28;20264;-74
2021/08/25 08:59:48;;;;;;;2.50;1.87;;;;;;;16.78;91.51;101378.28;5004488;28;20323;-74
2021/08/25 09:02:51;;;;;;;3.37;2.23;;;;;;;16.88;91.70;101375.16;5013784;28;20180;-74
2021/08/25 09:05:27;;;;;;;2.97;2.47;;;;;;;16.88;90.81;101377.91;5013615;28;20204;-74
2021/08/25 09:07:58;;;;;;;2.23;1.70;;;;;;;16.87;90.97;101360.53;5013645;28;20195;-74
2021/08/25 09:10:26;;;;;;;2.70;1.87;;;;;;;16.88;92.41;101364.13;5013763;28;20628;-74
2021/08/25 09:12:53;;;;;;;4.77;2.50;;;;;;;16.93;90.77;101352.91;5013699;28;20185;-74
2021/08/25 09:15:23;;;;;;;7.47;2.47;;;;;;;17.00;91.58;101344.91;5013433;28;20601;-74
2021/08/25 09:17:57;;;;;;;2.50;1.60;;;;;;;16.98;88.18;101343.63;5013552;28;20193;-73
2021/08/25 09:20:22;;;;;;;3.70;1.83;;;;;;;16.99;88.59;101337.75;5013278;28;20373;-73
2021/08/25 09:23:05;;;;;;;1.33;1.17;;;;;;;17.12;87.14;101342.25;4994854;28;20417;-73
2021/08/25 09:25:31;;;;;;;1.93;1.70;;;;;;;17.25;87.09;101341.19;4993792;28;20180;-73
2021/08/25 09:27:57;;;;;;;4.00;2.07;;;;;;;17.42;86.80;101340.25;5012333;28;20184;-74
2021/08/25 09:30:22;;;;;;;2.70;2.47;;;;;;;17.47;85.38;101333.72;5009717;28;20592;-73
2021/08/25 09:32:47;;;;;;;1.40;1.30;;;;;;;17.53;84.32;101324.09;5012644;28;20258;-73
2021/08/25 09:35:13;;;;;;;5.43;2.10;;;;;;;17.56;82.02;101315.13;5003008;28;20272;-74
2021/08/25 09:37:38;;;;;;;2.57;1.37;;;;;;;17.72;84.69;101318.94;5012470;28;20291;-73
2021/08/25 09:40:13;;;;;;;1.50;1.40;;;;;;;17.90;84.72;101318.78;5011407;28;20235;-73
2021/08/25 09:42:44;;;;;;;2.03;1.60;;;;;;;18.16;79.69;101319.34;5013052;28;20627;-73
2021/08/25 09:45:13;;;;;;;2.60;1.87;;;;;;;18.26;78.28;101316.16;5011450;28;20219;-73
2021/08/25 09:47:56;;;;;;;2.20;1.90;;;;;;;18.42;79.26;101306.03;5012170;28;20550;-73
2021/08/25 09:50:27;;;;;;;2.53;1.47;;;;;;;18.52;74.87;101309.50;5012109;28;20177;-73
2021/08/25 09:52:52;;;;;;;1.93;1.73;;;;;;;18.51;71.95;101308.69;5011435;28;20267;-74
2021/08/25 09:55:38;;;;;;;1.47;1.13;;;;;;;18.54;67.00;101315.50;5009278;28;20333;-73
2021/08/25 09:58:13;;;;;;;2.70;1.87;;;;;;;18.69;68.33;101314.88;5004585;28;20735;-73
2021/08/25 10:00:38;;;;;;;1.77;1.43;;;;;;;18.88;67.17;101304.00;5009053;28;20312;-73
2021/08/25 10:03:03;;;;;;;1.90;1.23;;;;;;;18.91;65.56;101308.84;5012428;28;20645;-74
2021/08/25 10:05:29;;;;;;;2.03;1.53;;;;;;;18.88;66.43;101298.47;5012320;28;20855;-73
2021/08/25 10:07:56;;;;;;;1.70;1.30;;;;;;;19.02;70.62;101296.16;5012480;28;20181;-73
2021/08/25 10:10:22;;;;;;;2.07;1.87;;;;;;;19.11;67.21;101293.28;5011404;28;20508;-74
2021/08/25 10:12:49;;;;;;;1.50;1.40;;;;;;;19.08;68.73;101287.59;5009962;28;20217;-74
2021/08/25 10:15:41;;;;;;;2.67;1.97;;;;;;;18.96;67.71;101283.72;5008282;28;20215;-74
2021/08/25 10:18:26;;;;;;;2.43;2.10;;;;;;;19.00;69.25;101270.78;5007529;28;20192;-74
2021/08/25 10:20:54;;;;;;;2.20;1.80;;;;;;;19.13;71.07;101265.22;5010884;28;20180;-73
2021/08/25 10:23:22;;;;;;;1.53;1.43;;;;;;;19.28;69.76;101256.19;5011932;28;20200;-75
2021/08/25 10:26:09;;;;;;;1.37;1.23;;;;;;;19.31;69.42;101245.19;5003530;28;20716;-74
2021/08/25 10:29:11;;;;;;;3.37;2.43;;;;;;;19.50;68.30;101241.78;5009299;28;20532;-75
2021/08/25 10:31:49;;;;;;;2.00;1.40;;;;;;;19.71;68.23;101233.31;4999089;28;20192;-73
2021/08/25 10:34:20;;;;;;;2.33;1.73;;;;;;;19.65;65.98;101223.59;5009056;28;20172;-75
2021/08/25 10:36:46;;;;;;;1.67;1.53;;;;;;;19.80;66.59;101230.34;4997877;28;20239;-75
2021/08/25 10:39:33;;;;;;;2.00;1.40;;;;;;;19.71;60.70;101218.63;5007127;28;20605;-75
2021/08/25 10:41:59;;;;;;;3.27;1.40;;;;;;;19.56;61.15;101222.97;5006146;28;20786;-76
2021/08/25 10:44:36;;;;;;;1.90;1.23;;;;;;;19.68;61.03;101213.81;5011976;28;20212;-74
2021/08/25 10:47:03;;;;;;;1.63;0.90;;;;;;;19.78;60.78;101208.53;5012208;28;20690;-75
2021/08/25 10:49:33;;;;;;;2.03;1.50;;;;;;;19.84;60.83;101209.09;5008839;28;20272;-75
2021/08/25 10:52:13;;;;;;;3.13;1.53;;;;;;;19.88;62.04;101202.47;4998405;28;20243;-75
2021/08/25 10:54:39;;;;;;;3.03;1.63;;;;;;;20.01;63.92;101197.66;4992450;28;20648;-77
2021/08/25 10:57:18;;;;;;;3.33;1.80;;;;;;;20.13;62.34;101203.13;4993641;28;20181;-76
2021/08/25 10:59:44;;;;;;;2.77;1.30;;;;;;;20.20;62.77;101188.59;4993294;28;20195;-76
2021/08/25 11:02:10;;;;;;;3.40;1.80;;;;;;;20.33;63.00;101176.25;4992185;28;20633;-76
2021/08/25 11:04:35;;;;;;;2.57;1.70;;;;;;;20.34;61.41;101179.81;5011171;28;20208;-75
2021/08/25 11:07:05;;;;;;;2.80;2.23;;;;;;;20.11;60.01;101172.16;5011343;28;20177;-77
2021/08/25 11:09:37;;;;;;;1.40;1.30;;;;;;;20.24;63.28;101170.06;5011548;28;20213;-76
2021/08/25 11:12:04;;;;;;;2.90;1.77;;;;;;;20.45;61.16;101169.81;5011547;28;20169;-76
2021/08/25 11:14:49;;;;;;;2.23;1.40;;;;;;;20.57;62.07;101157.81;5011347;28;20180;-76
2021/08/25 11:17:32;;;;;;;1.57;1.27;;;;;;;20.40;58.03;101158.97;5010378;28;20192;-73
2021/08/25 11:20:04;;;;;;;2.20;1.40;;;;;;;20.39;59.44;101147.03;5011386;28;20176;-76